Lava Hot Springs, ID

1:42 PM MST on December 07, 2016 (GMT -0700)
Dempsey Creek | | Change Station
Active Advisory: Winter Storm Watch Active Notice: Local Storm Report

Elev 5249 ft 42.59 °N, 112.03 °W | Updated 7 seconds ago

Light Snow
Light Snow
20.5 °F
Feels Like 15 °F
N
4.2
Wind Variable Wind from WSW
Gusts 4.9 mph

Today
High -- | Low -- °F
--% Chance of Precip.
Yesterday
High -- | Low -- °F
Precip. -- in
Pressure 30.47 in
Visibility 6.0 miles
Clouds Mostly Cloudy 1800 ft
Windchill 15 °F
Dew Point -1 °F
Humidity 38%
Rainfall 0.00 in
Snow Depth Not available.
7:44 AM 4:54 PM
First Quarter, 55% visible
METAR KPIH 071953Z 25005KT 6SM -SN BKN018 M08/M11 A3030 RMK AO2 SLP316 P0000 T10781106 $
Pressure 30.47 in
Visibility 6.0 miles
Clouds Mostly Cloudy 1800 ft
Windchill 15 °F
Dew Point -1 °F
Humidity 38%
Rainfall 0.00 in
Snow Depth Not available.
7:44 AM 4:54 PM
First Quarter, 55% visible
METAR KPIH 071953Z 25005KT 6SM -SN BKN018 M08/M11 A3030 RMK AO2 SLP316 P0000 T10781106 $

10-Day Weather Forecast

Almanac

Astronomy

Dec. 07, 2016 Rise Set
Actual Time
Civil Twilight
Nautical Twilight
Astronomical Twilight
Moon
Length of Visible Light
Length of Day
Tomorrow will be .
, % of the Moon is Illuminated

Today's Extremes

State Highs State Lows

Community

WunderPhotos

Upload Photos

1,956,170 photos uploaded!

WunderBlog® & News

Nearby

Air Quality

  Air Quality AQ Index Pollutant
Not available.

Snow Depth

Station Depth Elevation

Earthquake Activity

City Distance Mag. Time & Date
Minimum magnitude displayed is 2.5.

Coastal Water Temperatures

Place Temperature

Stations

Nearby Weather Stations

Station Location Temp. Windchill Dew Point Humidity Wind Precip. Elev Updated Type
                   

Watches & Warnings

Winter Storm Watch
Issued: 3:27 AM MST Dec. 7, 2016 – National Weather Service

... Winter Storm Watch in effect from Thursday morning through
Saturday afternoon...

The National Weather Service in Pocatello has issued a Winter
Storm Watch... which is in effect from Thursday morning through
Saturday afternoon.

* Impacts... moderate to heavy snowfall will accumulate on roadways
resulting in slick surfaces and reduced visibility.

* Timing... starting Thursday afternoon through Saturday

* snow accumulations... 10 to 15 inches Thursday and Friday above
7000 ft... and another 10 to 15 inches Friday night and Saturday.

* Locations... Stanley... Clayton... St. Anthony... Ashton... Island
Park... Driggs... Victor... Malad City... Oakley... Rockland...
Henry... Soda Springs... Downey... Lava Hot Springs... Preston...
Montpelier... Hailey... Ketchum... Bellevue... Arco... Challis...
MacKay

Precautionary/preparedness actions...

A Winter Storm Watch means there is a potential for significant
snow, sleet or ice accumulations that may impact travel. Continue
to monitor the latest forecasts.